createdAt,value
2019-02-25T00:00:54.546Z,87.49
2019-02-25T00:01:54.472Z,87.4
2019-02-25T00:02:54.202Z,87.97
2019-02-25T00:03:54.432Z,88.16
2019-02-25T00:04:54.156Z,88.06
2019-02-25T00:05:54.392Z,87.77
2019-02-25T00:06:54.375Z,88.16
2019-02-25T00:07:54.386Z,88.25
2019-02-25T00:08:54.334Z,88.35
2019-02-25T00:09:54.058Z,87.97
2019-02-25T00:10:54.296Z,88.35
2019-02-25T00:11:54.027Z,88.25
2019-02-25T00:12:54.251Z,88.44
2019-02-25T00:13:54.233Z,88.73
2019-02-25T00:14:53.963Z,88.25
2019-02-25T00:15:53.964Z,87.49
2019-02-25T00:16:54.174Z,87.68
2019-02-25T00:17:53.903Z,87.4
2019-02-25T00:18:53.886Z,87.87
2019-02-25T00:19:54.143Z,87.4
2019-02-25T00:20:54.140Z,87.12
2019-02-25T00:21:54.078Z,86.83
2019-02-25T00:22:54.093Z,86.64
2019-02-25T00:23:54.044Z,86.93
2019-02-25T00:24:54.025Z,87.21
2019-02-25T00:25:53.992Z,87.02
2019-02-25T00:26:53.984Z,87.21
2019-02-25T00:27:53.732Z,87.02
2019-02-25T00:28:53.687Z,86.64
2019-02-25T00:29:53.923Z,86.64
2019-02-25T00:30:53.904Z,86.35
2019-02-25T00:31:53.622Z,85.97
2019-02-25T00:32:53.858Z,86.55
2019-02-25T00:33:53.838Z,86.83
2019-02-25T00:34:53.833Z,87.49
2019-02-25T00:35:53.814Z,88.54
2019-02-25T00:36:53.836Z,88.35
2019-02-25T00:37:53.512Z,88.35
2019-02-25T00:38:53.742Z,88.63
2019-02-25T00:39:53.773Z,88.16
2019-02-25T00:40:53.711Z,88.44
2019-02-25T00:41:53.431Z,88.44
2019-02-25T00:42:53.658Z,88.16
2019-02-25T00:43:53.636Z,88.54
2019-02-25T00:44:53.624Z,88.63
2019-02-25T00:45:53.600Z,88.54
2019-02-25T00:46:53.581Z,87.97
2019-02-25T00:47:53.564Z,88.16
2019-02-25T00:48:53.287Z,88.54
2019-02-25T00:49:53.525Z,88.25
2019-02-25T00:50:53.499Z,87.59
2019-02-25T00:51:53.543Z,87.59
2019-02-25T00:52:53.465Z,87.4
2019-02-25T00:53:53.444Z,87.4
2019-02-25T00:54:53.453Z,87.02
2019-02-25T00:55:53.147Z,87.12
2019-02-25T00:56:53.383Z,86.83
2019-02-25T00:57:53.360Z,86.93
2019-02-25T00:58:53.355Z,87.3
2019-02-25T00:59:53.318Z,87.68
2019-02-25T01:00:53.057Z,88.06
2019-02-25T01:01:53.024Z,88.16
2019-02-25T01:02:53.006Z,88.06
2019-02-25T01:03:53.241Z,88.06
2019-02-25T01:04:53.221Z,88.92
2019-02-25T01:05:53.213Z,88.63
2019-02-25T01:06:53.182Z,88.73
2019-02-25T01:07:52.913Z,88.54
2019-02-25T01:08:53.145Z,89.29
2019-02-25T01:09:53.139Z,88.73
2019-02-25T01:10:53.103Z,88.82
2019-02-25T01:11:52.832Z,89.39
2019-02-25T01:12:52.807Z,89.29
2019-02-25T01:13:53.052Z,89.39
2019-02-25T01:14:53.029Z,90.05
2019-02-25T01:15:53.009Z,89.96
2019-02-25T01:16:52.987Z,90.15
2019-02-25T01:17:52.719Z,89.86
2019-02-25T01:18:52.985Z,89.77
2019-02-25T01:19:52.931Z,89.67
2019-02-25T01:20:52.909Z,89.58
2019-02-25T01:21:52.631Z,89.48
2019-02-25T01:22:52.868Z,89.67
2019-02-25T01:23:52.604Z,89.96
2019-02-25T01:24:52.866Z,90.15
2019-02-25T01:25:52.811Z,90.34
2019-02-25T01:26:52.790Z,89.77
2019-02-25T01:27:52.770Z,90.05
2019-02-25T01:28:52.492Z,89.96
2019-02-25T01:29:52.725Z,91.19
2019-02-25T01:30:52.727Z,91.19
2019-02-25T01:31:52.434Z,91.38
2019-02-25T01:32:52.745Z,91.09
2019-02-25T01:33:52.650Z,91.28
2019-02-25T01:34:52.380Z,91.38
2019-02-25T01:35:52.671Z,91.85
2019-02-25T01:36:52.598Z,91.85
2019-02-25T01:37:52.312Z,91.76
2019-02-25T01:38:52.558Z,91.76
2019-02-25T01:39:52.527Z,91.76
2019-02-25T01:40:52.505Z,91.85
2019-02-25T01:41:52.495Z,91.66
2019-02-25T01:42:52.474Z,91.95
2019-02-25T01:43:52.454Z,91.76
2019-02-25T01:44:52.430Z,91.76
2019-02-25T01:45:52.415Z,91.85
2019-02-25T01:46:52.592Z,91.76
2019-02-25T01:47:52.453Z,91.47
2019-02-25T01:48:52.099Z,91.71
2019-02-25T01:49:52.355Z,91.95
2019-02-25T01:50:52.054Z,91.09
2019-02-25T01:51:52.076Z,91.28
2019-02-25T01:52:52.062Z,91.05
2019-02-25T01:53:52.285Z,91.24
2019-02-25T01:54:52.225Z,92.47
2019-02-25T01:55:52.208Z,91.85
2019-02-25T01:56:52.212Z,91.05
2019-02-25T01:57:52.172Z,90.86
2019-02-25T01:58:52.149Z,90.58
2019-02-25T01:59:52.134Z,90.2
2019-02-25T02:00:51.862Z,90.48
2019-02-25T02:01:52.090Z,90.29
2019-02-25T02:02:51.814Z,90.1
2019-02-25T02:03:52.067Z,89.91
2019-02-25T02:04:52.024Z,90.1
2019-02-25T02:05:51.755Z,90.01
2019-02-25T02:06:51.987Z,89.82
2019-02-25T02:07:51.967Z,90.01
2019-02-25T02:08:51.947Z,90.2
2019-02-25T02:09:51.675Z,91.24
2019-02-25T02:10:51.677Z,90.58
2019-02-25T02:11:51.887Z,90.67
2019-02-25T02:12:51.867Z,90.77
2019-02-25T02:13:51.852Z,89.82
2019-02-25T02:14:51.838Z,90.29
2019-02-25T02:15:51.803Z,90.77
2019-02-25T02:16:51.785Z,90.58
2019-02-25T02:17:51.769Z,91.14
2019-02-25T02:18:51.745Z,91.05
2019-02-25T02:19:51.472Z,90.95
2019-02-25T02:20:51.457Z,91.43
2019-02-25T02:21:51.681Z,91.05
2019-02-25T02:22:51.666Z,91.71
2019-02-25T02:23:51.640Z,92.09
2019-02-25T02:24:51.623Z,92.28
2019-02-25T02:25:51.606Z,92.57
2019-02-25T02:26:51.330Z,92.57
2019-02-25T02:27:51.320Z,92.76
2019-02-25T02:28:51.545Z,92.85
2019-02-25T02:29:51.525Z,93.13
2019-02-25T02:30:51.506Z,92.28
2019-02-25T02:31:51.483Z,92.85
2019-02-25T02:32:51.217Z,93.51
2019-02-25T02:33:51.443Z,93.23
2019-02-25T02:34:51.168Z,93.51
2019-02-25T02:35:51.401Z,93.89
2019-02-25T02:36:51.130Z,93.51
2019-02-25T02:37:51.369Z,93.99
2019-02-25T02:38:51.386Z,94.18
2019-02-25T02:39:51.324Z,94.08
2019-02-25T02:40:51.047Z,94.84
2019-02-25T02:41:51.282Z,94.46
2019-02-25T02:42:51.264Z,94.84
2019-02-25T02:43:51.243Z,94.84
2019-02-25T02:44:51.234Z,94.46
2019-02-25T02:45:51.194Z,95.03
2019-02-25T02:46:50.924Z,95.22
2019-02-25T02:47:51.157Z,95.12
2019-02-25T02:48:51.166Z,96.17
2019-02-25T02:49:50.867Z,95.88
2019-02-25T02:50:51.154Z,95.6
2019-02-25T02:51:51.081Z,96.07
2019-02-25T02:52:51.063Z,96.07
2019-02-25T02:53:51.042Z,95.69
2019-02-25T02:54:51.019Z,96.26
2019-02-25T02:55:51.003Z,96.36
2019-02-25T02:56:50.722Z,96.26
2019-02-25T02:57:50.961Z,95.5
2019-02-25T02:58:50.935Z,95.79
2019-02-25T02:59:50.937Z,95.6
2019-02-25T03:00:50.894Z,95.69
2019-02-25T03:01:50.628Z,95.69
2019-02-25T03:02:50.858Z,96.07
2019-02-25T03:03:50.585Z,95.64
2019-02-25T03:04:50.861Z,96.02
2019-02-25T03:05:50.798Z,95.55
2019-02-25T03:06:50.772Z,95.6
2019-02-25T03:07:50.748Z,95.6
2019-02-25T03:08:50.736Z,95.55
2019-02-25T03:09:50.467Z,95.74
2019-02-25T03:10:50.694Z,95.55
2019-02-25T03:11:50.670Z,95.64
2019-02-25T03:12:50.403Z,95.45
2019-02-25T03:13:50.630Z,95.74
2019-02-25T03:14:50.608Z,96.21
2019-02-25T03:15:50.596Z,96.21
2019-02-25T03:16:50.577Z,96.21
2019-02-25T03:17:50.306Z,96.31
2019-02-25T03:18:50.528Z,96.5
2019-02-25T03:19:50.247Z,96.69
2019-02-25T03:20:50.489Z,96.69
2019-02-25T03:21:50.462Z,97.54
2019-02-25T03:22:50.444Z,97.35
2019-02-25T03:23:50.425Z,97.54
2019-02-25T03:24:50.742Z,97.82
2019-02-25T03:25:50.384Z,97.44
2019-02-25T03:26:50.364Z,97.54
2019-02-25T03:27:50.379Z,98.11
2019-02-25T03:28:50.068Z,97.54
2019-02-25T03:29:50.041Z,97.92
2019-02-25T03:30:50.067Z,98.39
2019-02-25T03:31:50.279Z,98.49
2019-02-25T03:32:50.319Z,98.77
2019-02-25T03:33:50.227Z,98.77
2019-02-25T03:34:50.195Z,98.68
2019-02-25T03:35:50.180Z,98.49
2019-02-25T03:36:50.159Z,98.58
2019-02-25T03:37:49.931Z,98.96
2019-02-25T03:38:50.117Z,98.68
2019-02-25T03:39:50.092Z,99.24
2019-02-25T03:40:50.072Z,99.15
2019-02-25T03:41:50.048Z,99.33
2019-02-25T03:42:50.089Z,99.52
2019-02-25T03:43:50.017Z,98.3
2019-02-25T03:44:49.734Z,98.49
2019-02-25T03:45:49.970Z,98.49
2019-02-25T03:46:49.954Z,98.68
2019-02-25T03:47:49.928Z,98.49
2019-02-25T03:48:49.653Z,98.49
2019-02-25T03:49:49.886Z,98.3
2019-02-25T03:50:49.870Z,98.77
2019-02-25T03:51:49.596Z,98.58
2019-02-25T03:52:49.851Z,98.49
2019-02-25T03:53:49.548Z,99.15
2019-02-25T03:54:49.788Z,99.33
2019-02-25T03:55:49.776Z,99.33
2019-02-25T03:56:49.741Z,98.77
2019-02-25T03:57:49.722Z,98.86
2019-02-25T03:58:49.703Z,99.62
2019-02-25T03:59:49.422Z,99.43
2019-02-25T04:00:49.403Z,99.99
2019-02-25T04:01:49.644Z,99.99
2019-02-25T04:02:49.418Z,99.99
2019-02-25T04:03:49.597Z,99.99
2019-02-25T04:04:49.321Z,99.99
2019-02-25T04:05:49.301Z,99.99
2019-02-25T04:06:49.537Z,99.99
2019-02-25T04:07:49.519Z,99.99
2019-02-25T04:08:49.499Z,99.9
2019-02-25T04:09:49.485Z,99.85
2019-02-25T04:10:49.194Z,99.99
2019-02-25T04:11:49.184Z,99.99
2019-02-25T04:12:49.439Z,99.99
2019-02-25T04:13:49.390Z,99.43
2019-02-25T04:14:49.130Z,99.99
2019-02-25T04:15:49.092Z,99.99
2019-02-25T04:16:49.327Z,99.99
2019-02-25T04:17:49.098Z,99.99
2019-02-25T04:18:49.042Z,99.99
2019-02-25T04:19:49.007Z,99.99
2019-02-25T04:20:49.243Z,99.52
2019-02-25T04:21:49.264Z,99.05
2019-02-25T04:22:48.949Z,99.43
2019-02-25T04:23:49.191Z,99.24
2019-02-25T04:24:49.162Z,99.24
2019-02-25T04:25:49.138Z,98.39
2019-02-25T04:26:48.863Z,98.77
2019-02-25T04:27:48.847Z,98.77
2019-02-25T04:28:48.826Z,98.68
2019-02-25T04:29:49.080Z,98.2
2019-02-25T04:30:49.033Z,98.68
2019-02-25T04:31:48.761Z,98.39
2019-02-25T04:32:49.017Z,98.58
2019-02-25T04:33:48.967Z,98.77
2019-02-25T04:34:48.949Z,98.91
2019-02-25T04:35:48.698Z,98.68
2019-02-25T04:36:48.912Z,98.58
2019-02-25T04:37:48.893Z,98.63
2019-02-25T04:38:48.872Z,98.44
2019-02-25T04:39:48.845Z,99.01
2019-02-25T04:40:48.821Z,98.63
2019-02-25T04:41:48.801Z,98.63
2019-02-25T04:42:48.794Z,98.53
2019-02-25T04:43:48.760Z,99.48
2019-02-25T04:44:48.741Z,99.19
2019-02-25T04:45:48.470Z,98.91
2019-02-25T04:46:48.705Z,98.44
2019-02-25T04:47:48.677Z,98.44
2019-02-25T04:48:48.402Z,98.63
2019-02-25T04:49:48.639Z,98.44
2019-02-25T04:50:48.629Z,98.63
2019-02-25T04:51:48.364Z,98.44
2019-02-25T04:52:48.328Z,98.72
2019-02-25T04:53:48.571Z,98.44
2019-02-25T04:54:48.295Z,98.53
2019-02-25T04:55:48.625Z,98.72
2019-02-25T04:56:48.487Z,98.63
2019-02-25T04:57:48.469Z,98.44
2019-02-25T04:58:48.469Z,98.25
2019-02-25T04:59:48.428Z,98.72
2019-02-25T05:00:48.154Z,99.01
2019-02-25T05:01:48.282Z,99.01
2019-02-25T05:02:48.381Z,99.1
2019-02-25T05:03:48.351Z,99.48
2019-02-25T05:04:48.337Z,99.99
2019-02-25T05:05:48.320Z,99.95
2019-02-25T05:06:48.280Z,99.99
2019-02-25T05:07:48.002Z,99.99
2019-02-25T05:08:48.269Z,99.99
2019-02-25T05:09:47.961Z,99.99
2019-02-25T05:10:47.935Z,99.99
2019-02-25T05:11:47.917Z,99.99
2019-02-25T05:12:47.904Z,99.99
2019-02-25T05:13:48.194Z,99.99
2019-02-25T05:14:48.112Z,99.99
2019-02-25T05:15:48.129Z,99.99
2019-02-25T05:16:48.068Z,99.99
2019-02-25T05:17:48.054Z,99.99
2019-02-25T05:18:48.024Z,99.99
2019-02-25T05:19:48.020Z,99.99
2019-02-25T05:20:47.988Z,99.99
2019-02-25T05:21:47.705Z,99.99
2019-02-25T05:22:47.691Z,99.99
2019-02-25T05:23:47.668Z,99.99
2019-02-25T05:24:47.645Z,99.99
2019-02-25T05:25:47.886Z,99.99
2019-02-25T05:26:47.602Z,99.99
2019-02-25T05:27:47.842Z,99.99
2019-02-25T05:28:47.819Z,99.99
2019-02-25T05:29:47.538Z,99.99
2019-02-25T05:30:47.771Z,99.99
2019-02-25T05:31:47.497Z,99.99
2019-02-25T05:32:47.482Z,99.99
2019-02-25T05:33:47.460Z,99.99
2019-02-25T05:34:47.691Z,99.99
2019-02-25T05:35:47.416Z,99.99
2019-02-25T05:36:47.389Z,99.99
2019-02-25T05:37:47.623Z,99.99
2019-02-25T05:38:47.603Z,99.99
2019-02-25T05:39:47.334Z,99.99
2019-02-25T05:40:47.569Z,99.99
2019-02-25T05:41:47.294Z,99.99
2019-02-25T05:42:47.667Z,99.99
2019-02-25T05:43:47.239Z,99.99
2019-02-25T05:44:47.220Z,99.99
2019-02-25T05:45:47.209Z,99.99
2019-02-25T05:46:47.445Z,99.99
2019-02-25T05:47:47.673Z,99.99
2019-02-25T05:48:47.401Z,99.99
2019-02-25T05:49:47.446Z,99.99
2019-02-25T05:50:49.478Z,99.99
2019-02-25T05:51:47.076Z,99.99
2019-02-25T05:52:47.305Z,99.99
2019-02-25T05:53:47.303Z,99.99
2019-02-25T05:54:47.352Z,99.99
2019-02-25T05:55:47.248Z,99.99
2019-02-25T05:56:47.220Z,99.99
2019-02-25T05:57:47.204Z,99.99
2019-02-25T05:58:47.180Z,99.99
2019-02-25T05:59:47.155Z,99.99
2019-02-25T06:00:46.919Z,99.99
2019-02-25T06:01:46.867Z,99.99
2019-02-25T06:02:47.173Z,99.99
2019-02-25T06:03:46.819Z,99.99
2019-02-25T06:04:47.082Z,99.99
2019-02-25T06:05:46.777Z,99.99
2019-02-25T06:06:46.811Z,99.99
2019-02-25T06:07:46.984Z,99.99
2019-02-25T06:08:46.711Z,99.99
2019-02-25T06:09:46.951Z,99.99
2019-02-25T06:10:46.919Z,99.99
2019-02-25T06:11:46.652Z,99.99
2019-02-25T06:12:46.880Z,99.99
2019-02-25T06:13:46.858Z,99.99
2019-02-25T06:14:46.838Z,99.99
2019-02-25T06:15:46.817Z,99.99
2019-02-25T06:16:46.537Z,99.99
2019-02-25T06:17:46.778Z,99.99
2019-02-25T06:18:46.755Z,99.99
2019-02-25T06:19:46.477Z,99.99
2019-02-25T06:20:46.716Z,99.99
2019-02-25T06:21:46.435Z,99.99
2019-02-25T06:22:46.417Z,99.99
2019-02-25T06:23:46.419Z,99.99
2019-02-25T06:24:46.378Z,99.99
2019-02-25T06:25:46.380Z,99.99
2019-02-25T06:26:46.585Z,99.99
2019-02-25T06:27:46.633Z,99.99
2019-02-25T06:28:46.550Z,99.99
2019-02-25T06:29:46.524Z,99.99
2019-02-25T06:30:46.241Z,99.99
2019-02-25T06:31:46.491Z,99.99
2019-02-25T06:32:46.462Z,99.99
2019-02-25T06:33:47.534Z,99.99
2019-02-25T06:34:46.421Z,99.99
2019-02-25T06:35:46.147Z,99.99
2019-02-25T06:36:46.122Z,99.99
2019-02-25T06:37:46.379Z,99.99
2019-02-25T06:38:46.346Z,99.99
2019-02-25T06:39:46.311Z,99.99
2019-02-25T06:40:46.290Z,99.99
2019-02-25T06:41:46.021Z,99.99
2019-02-25T06:42:46.237Z,99.99
2019-02-25T06:43:46.217Z,99.99
2019-02-25T06:44:45.945Z,99.99
2019-02-25T06:45:45.937Z,99.99
2019-02-25T06:46:46.156Z,99.99
2019-02-25T06:47:46.133Z,99.99
2019-02-25T06:48:46.151Z,99.99
2019-02-25T06:49:46.086Z,99.99
2019-02-25T06:50:46.066Z,99.99
2019-02-25T06:51:45.790Z,99.99
2019-02-25T06:52:46.053Z,99.99
2019-02-25T06:53:45.755Z,99.99
2019-02-25T06:54:45.776Z,99.99
2019-02-25T06:55:45.967Z,99.99
2019-02-25T06:56:45.950Z,99.99
2019-02-25T06:57:45.959Z,99.99
2019-02-25T06:58:45.900Z,99.99
2019-02-25T06:59:45.888Z,99.99
2019-02-25T07:00:45.865Z,99.99
2019-02-25T07:01:45.834Z,99.99
2019-02-25T07:02:45.569Z,99.99
2019-02-25T07:03:46.179Z,99.99
2019-02-25T07:04:45.769Z,99.99
2019-02-25T07:05:45.514Z,99.99
2019-02-25T07:06:45.727Z,99.99
2019-02-25T07:07:45.452Z,99.99
2019-02-25T07:08:45.696Z,99.99
2019-02-25T07:09:45.667Z,99.99
2019-02-25T07:10:45.648Z,99.99
2019-02-25T07:11:45.372Z,99.99
2019-02-25T07:12:45.360Z,99.99
2019-02-25T07:13:45.329Z,99.99
2019-02-25T07:14:47.308Z,99.99
2019-02-25T07:15:45.297Z,99.99
2019-02-25T07:16:45.571Z,99.99
2019-02-25T07:17:45.492Z,99.99
2019-02-25T07:18:45.221Z,99.99
2019-02-25T07:19:45.454Z,99.99
2019-02-25T07:20:45.181Z,99.99
2019-02-25T07:21:45.157Z,99.99
2019-02-25T07:22:45.389Z,99.99
2019-02-25T07:23:45.371Z,99.99
2019-02-25T07:24:52.575Z,99.99
2019-02-25T07:25:45.325Z,99.99
2019-02-25T07:26:45.309Z,99.99
2019-02-25T07:27:45.302Z,99.99
2019-02-25T07:28:45.006Z,99.99
2019-02-25T07:29:45.240Z,99.99
2019-02-25T07:30:44.972Z,99.99
2019-02-25T07:31:45.213Z,99.99
2019-02-25T07:32:45.226Z,99.99
2019-02-25T07:33:44.909Z,99.99
2019-02-25T07:34:44.903Z,99.99
2019-02-25T07:35:45.120Z,99.99
2019-02-25T07:36:45.101Z,99.99
2019-02-25T07:37:45.080Z,99.99
2019-02-25T07:38:45.059Z,99.99
2019-02-25T07:39:45.031Z,99.99
2019-02-25T07:40:45.014Z,99.99
2019-02-25T07:41:44.991Z,99.99
2019-02-25T07:42:44.991Z,99.99
2019-02-25T07:43:44.949Z,99.99
2019-02-25T07:44:44.929Z,99.99
2019-02-25T07:45:44.923Z,99.99
2019-02-25T07:46:44.902Z,99.99
2019-02-25T07:47:45.066Z,99.99
2019-02-25T07:48:44.928Z,99.99
2019-02-25T07:49:44.926Z,99.99
2019-02-25T07:50:49.879Z,99.99
2019-02-25T07:51:44.530Z,99.99
2019-02-25T07:52:44.776Z,99.99
2019-02-25T07:53:44.774Z,99.99
2019-02-25T07:54:44.730Z,99.99
2019-02-25T07:55:44.701Z,99.99
2019-02-25T07:56:44.682Z,99.99
2019-02-25T07:57:44.665Z,99.99
2019-02-25T07:58:44.646Z,99.99
2019-02-25T07:59:44.371Z,99.99
2019-02-25T08:00:44.601Z,99.99
2019-02-25T08:01:44.583Z,99.99
2019-02-25T08:02:44.558Z,99.99
2019-02-25T08:03:44.546Z,99.99
2019-02-25T08:04:44.272Z,99.99
2019-02-25T08:05:44.506Z,99.99
2019-02-25T08:06:44.219Z,99.99
2019-02-25T08:07:44.465Z,99.99
2019-02-25T08:08:44.434Z,99.99
2019-02-25T08:09:44.414Z,99.99
2019-02-25T08:10:44.395Z,99.99
2019-02-25T08:11:44.120Z,99.99
2019-02-25T08:12:44.097Z,99.99
2019-02-25T08:13:44.335Z,99.99
2019-02-25T08:14:44.067Z,99.99
2019-02-25T08:15:44.303Z,99.99
2019-02-25T08:16:44.026Z,99.99
2019-02-25T08:17:44.005Z,99.99
2019-02-25T08:18:44.236Z,99.99
2019-02-25T08:19:44.221Z,99.99
2019-02-25T08:20:43.942Z,99.99
2019-02-25T08:21:44.177Z,99.99
2019-02-25T08:22:43.901Z,99.99
2019-02-25T08:23:43.881Z,99.99
2019-02-25T08:24:44.115Z,99.99
2019-02-25T08:25:44.096Z,99.99
2019-02-25T08:26:44.122Z,99.99
2019-02-25T08:27:44.060Z,99.99
2019-02-25T08:28:44.044Z,99.99
2019-02-25T08:29:43.765Z,99.99
2019-02-25T08:30:43.745Z,99.99
2019-02-25T08:31:43.996Z,99.99
2019-02-25T08:32:43.961Z,99.99
2019-02-25T08:33:43.947Z,96.36
2019-02-25T08:34:43.688Z,94.08
2019-02-25T08:35:43.912Z,88.6
2019-02-25T08:36:43.893Z,86.75
2019-02-25T08:37:43.643Z,84.84
2019-02-25T08:38:43.862Z,84.84
2019-02-25T08:39:43.590Z,85.28
2019-02-25T08:40:43.825Z,85.28
2019-02-25T08:41:43.803Z,85.33
2019-02-25T08:42:43.814Z,86.85
2019-02-25T08:43:43.768Z,85.47
2019-02-25T08:44:43.752Z,85.28
2019-02-25T08:45:43.742Z,84.61
2019-02-25T08:46:43.722Z,84.17
2019-02-25T08:47:43.704Z,84.31
2019-02-25T08:48:43.437Z,83.25
2019-02-25T08:49:43.719Z,77.57
2019-02-25T08:50:43.659Z,73.98
2019-02-25T08:51:43.648Z,72.91
2019-02-25T08:52:43.628Z,71.13
2019-02-25T08:53:43.414Z,70.59
2019-02-25T08:54:43.604Z,68.8
2019-02-25T08:55:43.588Z,66.67
2019-02-25T08:56:43.328Z,64.59
2019-02-25T08:57:43.582Z,64.63
2019-02-25T08:58:45.002Z,63.6
2019-02-25T08:59:43.545Z,60.72
2019-02-25T09:00:43.277Z,60.25
2019-02-25T09:01:43.517Z,59.03
2019-02-25T09:02:43.503Z,59.41
2019-02-25T09:03:43.240Z,58.2
2019-02-25T09:04:43.228Z,57.52
2019-02-25T09:05:43.223Z,56.4
2019-02-25T09:06:43.464Z,56.66
2019-02-25T09:07:45.249Z,56.46
2019-02-25T09:08:43.465Z,57.88
2019-02-25T09:09:43.435Z,57.01
2019-02-25T09:10:43.168Z,56.37
2019-02-25T09:11:43.419Z,57.97
2019-02-25T09:12:43.157Z,57.01
2019-02-25T09:13:43.390Z,56.18
2019-02-25T09:14:43.132Z,56.27
2019-02-25T09:15:43.167Z,56.3
2019-02-25T09:16:43.363Z,55.91
2019-02-25T09:17:43.105Z,56.4
2019-02-25T09:18:43.089Z,56.68
2019-02-25T09:19:43.080Z,56.21
2019-02-25T09:20:43.330Z,56.37
2019-02-25T09:21:43.316Z,56.34
2019-02-25T09:22:43.313Z,56.08
2019-02-25T09:23:43.351Z,54.55
2019-02-25T09:24:43.134Z,55.51
2019-02-25T09:25:43.033Z,55.67
2019-02-25T09:26:43.025Z,56.08
2019-02-25T09:27:43.275Z,55.51
2019-02-25T09:28:43.285Z,55.22
2019-02-25T09:29:44.797Z,55.89
2019-02-25T09:30:43.244Z,57.78
2019-02-25T09:31:43.045Z,58.81
2019-02-25T09:32:43.239Z,59.45
2019-02-25T09:33:43.246Z,60.57
2019-02-25T09:34:42.960Z,60.38
2019-02-25T09:35:42.971Z,60
2019-02-25T09:36:43.196Z,59.64
2019-02-25T09:37:42.978Z,59.83
2019-02-25T09:38:42.937Z,60.19
2019-02-25T09:39:43.180Z,60.09
2019-02-25T09:40:43.212Z,59.71
2019-02-25T09:41:43.180Z,60.25
2019-02-25T09:42:43.151Z,61.4
2019-02-25T09:43:43.138Z,61.88
2019-02-25T09:44:43.143Z,63
2019-02-25T09:45:43.124Z,62.9
2019-02-25T09:46:42.860Z,63.67
2019-02-25T09:47:43.304Z,63.39
2019-02-25T09:48:43.096Z,62.65
2019-02-25T09:49:43.094Z,61.91
2019-02-25T09:50:43.074Z,61.63
2019-02-25T09:51:43.065Z,62.2
2019-02-25T09:52:42.803Z,61.88
2019-02-25T09:53:43.057Z,61.69
2019-02-25T09:54:43.054Z,60.31
2019-02-25T09:55:43.046Z,59.48
2019-02-25T09:56:43.036Z,58.36
2019-02-25T09:57:42.765Z,57.04
2019-02-25T09:58:42.765Z,56.56
2019-02-25T09:59:43.009Z,58
2019-02-25T10:00:42.808Z,57.21
2019-02-25T10:01:42.739Z,57.97
2019-02-25T10:02:42.734Z,58.26
2019-02-25T10:03:42.722Z,58.36
2019-02-25T10:04:42.972Z,58.26
2019-02-25T10:05:42.979Z,58.87
2019-02-25T10:06:42.950Z,59.64
2019-02-25T10:07:42.944Z,60.54
2019-02-25T10:08:42.940Z,60.64
2019-02-25T10:09:42.928Z,61.6
2019-02-25T10:10:42.940Z,61.98
2019-02-25T10:11:42.914Z,62.65
2019-02-25T10:12:42.656Z,61.94
2019-02-25T10:13:42.898Z,62.62
2019-02-25T10:14:42.899Z,62.9
2019-02-25T10:15:42.645Z,63.16
2019-02-25T10:16:42.617Z,63.19
2019-02-25T10:17:42.611Z,62.46
2019-02-25T10:18:42.606Z,60.67
2019-02-25T10:19:42.885Z,60.28
2019-02-25T10:20:42.844Z,59.83
2019-02-25T10:21:42.584Z,57.24
2019-02-25T10:22:42.634Z,58.87
2019-02-25T10:23:43.017Z,58.39
2019-02-25T10:24:42.816Z,56.12
2019-02-25T10:25:42.568Z,54.49
2019-02-25T10:26:42.538Z,56.02
2019-02-25T10:27:42.535Z,56.22
2019-02-25T10:28:42.779Z,56.51
2019-02-25T10:29:42.770Z,56.12
2019-02-25T10:30:42.508Z,55.16
2019-02-25T10:31:44.617Z,52.57
2019-02-25T10:32:42.772Z,54.3
2019-02-25T10:33:42.753Z,56.41
2019-02-25T10:34:42.736Z,55.93
2019-02-25T10:35:42.741Z,57.56
2019-02-25T10:36:43.999Z,57.28
2019-02-25T10:37:44.485Z,56.31
2019-02-25T10:38:42.701Z,55.55
2019-02-25T10:39:45.395Z,55.45
2019-02-25T10:40:43.287Z,55.13
2019-02-25T10:41:42.423Z,56.09
2019-02-25T10:42:42.419Z,56.07
2019-02-25T10:43:42.702Z,58.27
2019-02-25T10:44:42.735Z,58.39
2019-02-25T10:45:45.465Z,58.97
2019-02-25T10:46:45.366Z,58.23
2019-02-25T10:47:46.443Z,56.79
2019-02-25T10:48:42.624Z,56.15
2019-02-25T10:49:42.360Z,56.05
2019-02-25T10:50:43.158Z,55.69
2019-02-25T10:51:45.443Z,54.93
2019-02-25T10:52:47.069Z,54.38
2019-02-25T10:53:43.088Z,53.03
2019-02-25T10:54:42.575Z,53.7
2019-02-25T10:55:49.260Z,53.8
2019-02-25T10:56:42.674Z,52.46
2019-02-25T10:57:42.312Z,52.14
2019-02-25T10:58:42.555Z,52.43
2019-02-25T10:59:43.718Z,52.34
2019-02-25T11:00:45.868Z,52.91
2019-02-25T11:01:45.723Z,52.14
2019-02-25T11:02:48.865Z,50.82
2019-02-25T11:03:43.465Z,49.38
2019-02-25T11:04:42.251Z,49.02
2019-02-25T11:05:42.511Z,48.54
2019-02-25T11:06:42.266Z,48.95
2019-02-25T11:07:44.181Z,49.43
2019-02-25T11:08:45.703Z,49.17
2019-02-25T11:09:45.962Z,48.59
2019-02-25T11:10:43.953Z,46.67
2019-02-25T11:11:42.466Z,46.93
2019-02-25T11:12:42.989Z,46.23
2019-02-25T11:13:42.485Z,48.23
2019-02-25T11:14:44.158Z,49.07
2019-02-25T11:15:46.528Z,49.55
2019-02-25T11:16:45.883Z,50.15
2019-02-25T11:17:42.182Z,48.81
2019-02-25T11:18:43.095Z,49.69
2019-02-25T11:19:42.424Z,49.02
2019-02-25T11:20:42.439Z,49.31
2019-02-25T11:21:44.507Z,48.28
2019-02-25T11:22:46.085Z,48.38
2019-02-25T11:23:43.282Z,47.7
2019-02-25T11:24:42.404Z,48.28
2019-02-25T11:25:42.142Z,49.07
2019-02-25T11:26:42.423Z,48.88
2019-02-25T11:27:42.274Z,45.25
2019-02-25T11:28:45.948Z,43.78
2019-02-25T11:29:46.155Z,44.91
2019-02-25T11:30:43.079Z,46.91
2019-02-25T11:31:42.370Z,47.41
2019-02-25T11:32:42.401Z,47.61
2019-02-25T11:33:42.379Z,48.88
2019-02-25T11:34:42.442Z,48.4
2019-02-25T11:35:45.673Z,47.27
2019-02-25T11:36:42.093Z,47.94
2019-02-25T11:37:42.144Z,47.46
2019-02-25T11:38:42.349Z,47.85
2019-02-25T11:39:42.090Z,47.58
2019-02-25T11:40:42.339Z,45.84
2019-02-25T11:41:43.311Z,46.14
2019-02-25T11:42:42.332Z,47.41
2019-02-25T11:43:43.914Z,47.31
2019-02-25T11:44:42.329Z,45.1
2019-02-25T11:45:42.319Z,43.75
2019-02-25T11:46:42.064Z,45.6
2019-02-25T11:47:42.510Z,45.7
2019-02-25T11:48:42.310Z,45.24
2019-02-25T11:49:42.309Z,44.56
2019-02-25T11:50:42.051Z,45.14
2019-02-25T11:51:42.354Z,44.45
2019-02-25T11:52:42.090Z,44.45
2019-02-25T11:53:42.045Z,45.79
2019-02-25T11:54:42.045Z,45.89
2019-02-25T11:55:42.036Z,45.82
2019-02-25T11:56:42.302Z,44.59
2019-02-25T11:57:42.033Z,42.77
2019-02-25T11:58:42.029Z,43.24
2019-02-25T11:59:42.288Z,42.19
2019-02-25T12:00:42.474Z,42.02
2019-02-25T12:01:42.029Z,39.2
2019-02-25T12:02:42.315Z,40.45
2019-02-25T12:03:42.278Z,41.61
2019-02-25T12:04:42.357Z,41.81
2019-02-25T12:05:42.279Z,42.41
2019-02-25T12:06:42.273Z,41.83
2019-02-25T12:07:42.024Z,41.15
2019-02-25T12:08:42.274Z,41.05
2019-02-25T12:09:42.275Z,41.93
2019-02-25T12:10:42.272Z,40.67
2019-02-25T12:11:42.012Z,40.67
2019-02-25T12:12:42.272Z,40.57
2019-02-25T12:13:42.015Z,40.77
2019-02-25T12:14:42.287Z,41.83
2019-02-25T12:15:42.030Z,38.95
2019-02-25T12:16:42.271Z,38.95
2019-02-25T12:17:42.273Z,38.74
2019-02-25T12:18:42.303Z,38.74
2019-02-25T12:19:42.297Z,38.45
2019-02-25T12:20:42.277Z,38.25
2019-02-25T12:21:42.392Z,38.46
2019-02-25T12:22:42.019Z,36.72
2019-02-25T12:23:42.272Z,36.8
2019-02-25T12:24:42.282Z,38.53
2019-02-25T12:25:42.018Z,36.52
2019-02-25T12:26:42.270Z,38.06
2019-02-25T12:27:42.276Z,37.7
2019-02-25T12:28:42.286Z,35.49
2019-02-25T12:29:42.405Z,37.23
2019-02-25T12:30:42.023Z,37.15
2019-02-25T12:31:42.300Z,35.99
2019-02-25T12:32:42.281Z,37.34
2019-02-25T12:33:42.025Z,36.98
2019-02-25T12:34:42.030Z,36.41
2019-02-25T12:35:42.055Z,35.54
2019-02-25T12:36:42.296Z,36.14
2019-02-25T12:37:42.056Z,34.31
2019-02-25T12:38:42.035Z,32.76
2019-02-25T12:39:42.298Z,35.66
2019-02-25T12:40:42.296Z,35.67
2019-02-25T12:41:42.304Z,36.85
2019-02-25T12:42:42.064Z,34.35
2019-02-25T12:43:42.305Z,32.79
2019-02-25T12:44:42.311Z,32.97
2019-02-25T12:45:42.311Z,34.43
2019-02-25T12:46:42.314Z,35.57
2019-02-25T12:47:42.317Z,36.16
2019-02-25T12:48:42.320Z,34.97
2019-02-25T12:49:42.341Z,33.81
2019-02-25T12:50:42.324Z,32.92
2019-02-25T12:51:42.331Z,35.52
2019-02-25T12:52:42.342Z,37.96
2019-02-25T12:53:42.340Z,34.86
2019-02-25T12:54:42.086Z,34.39